createdAt,value
2019-01-24T00:00:52.691Z,-0.60
2019-01-24T00:03:19.812Z,-0.66
2019-01-24T00:05:46.889Z,-0.64
2019-01-24T00:08:14.049Z,-0.60
2019-01-24T00:10:41.273Z,-0.62
2019-01-24T00:13:08.714Z,-0.70
2019-01-24T00:15:36.184Z,-0.71
2019-01-24T00:18:03.404Z,-0.68
2019-01-24T00:20:30.475Z,-0.74
2019-01-24T00:22:57.632Z,-0.71
2019-01-24T00:25:24.832Z,-0.74
2019-01-24T00:27:51.980Z,-0.67
2019-01-24T00:30:19.159Z,-0.70
2019-01-24T00:32:46.507Z,-0.70
2019-01-24T00:35:14.158Z,-0.75
2019-01-24T00:37:41.205Z,-0.76
2019-01-24T00:40:10.308Z,-0.78
2019-01-24T00:42:37.468Z,-0.79
2019-01-24T00:45:05.808Z,-0.80
2019-01-24T00:47:33.326Z,-0.80
2019-01-24T00:50:00.507Z,-0.75
2019-01-24T00:52:27.705Z,-0.77
2019-01-24T00:54:54.818Z,-0.76
2019-01-24T00:57:21.956Z,-0.73
2019-01-24T00:59:49.134Z,-0.73
2019-01-24T01:02:16.664Z,-0.71
2019-01-24T01:04:43.920Z,-0.74
2019-01-24T01:07:11.654Z,-0.74
2019-01-24T01:09:38.862Z,-0.77
2019-01-24T01:12:06.431Z,-0.78
2019-01-24T01:14:33.536Z,-0.81
2019-01-24T01:17:00.747Z,-0.88
2019-01-24T01:19:28.126Z,-0.92
2019-01-24T01:21:55.333Z,-0.89
2019-01-24T01:24:22.511Z,-0.92
2019-01-24T01:26:49.699Z,-0.97
2019-01-24T01:29:16.885Z,-1.00
2019-01-24T01:31:44.059Z,-1.00
2019-01-24T01:34:11.243Z,-1.04
2019-01-24T01:36:38.449Z,-1.06
2019-01-24T01:39:07.731Z,-1.06
2019-01-24T01:41:34.913Z,-1.03
2019-01-24T01:44:02.091Z,-1.06
2019-01-24T01:46:29.324Z,-1.09
2019-01-24T01:48:56.545Z,-1.14
2019-01-24T01:51:23.729Z,-1.14
2019-01-24T01:53:50.973Z,-1.14
2019-01-24T01:56:18.038Z,-1.15
2019-01-24T01:58:45.493Z,-1.12
2019-01-24T02:01:12.577Z,-1.07
2019-01-24T02:03:39.750Z,-1.07
2019-01-24T02:06:06.839Z,-1.06
2019-01-24T02:08:34.675Z,-1.04
2019-01-24T02:11:01.843Z,-1.05
2019-01-24T02:13:29.133Z,-1.05
2019-01-24T02:15:56.309Z,-1.04
2019-01-24T02:18:23.518Z,-1.03
2019-01-24T02:20:50.594Z,-1.01
2019-01-24T02:23:18.086Z,-1.08
2019-01-24T02:25:45.198Z,-1.12
2019-01-24T02:28:12.360Z,-1.13
2019-01-24T02:30:39.580Z,-1.22
2019-01-24T02:33:06.746Z,-1.30
2019-01-24T02:35:33.846Z,-1.39
2019-01-24T02:38:00.942Z,-1.41
2019-01-24T02:40:28.117Z,-1.46
2019-01-24T02:42:55.203Z,-1.47
2019-01-24T02:45:23.082Z,-1.48
2019-01-24T02:47:50.154Z,-1.41
2019-01-24T02:50:18.433Z,-1.37
2019-01-24T02:52:45.640Z,-1.39
2019-01-24T02:55:13.743Z,-1.51
2019-01-24T02:57:40.932Z,-1.55
2019-01-24T03:00:10.030Z,-1.52
2019-01-24T03:02:37.328Z,-1.47
2019-01-24T03:05:06.520Z,-1.52
2019-01-24T03:07:34.082Z,-1.65
2019-01-24T03:10:01.279Z,-1.69
2019-01-24T03:12:28.448Z,-1.67
2019-01-24T03:14:55.631Z,-1.65
2019-01-24T03:17:22.840Z,-1.67
2019-01-24T03:19:49.901Z,-1.80
2019-01-24T03:22:17.111Z,-1.89
2019-01-24T03:24:44.171Z,-1.87
2019-01-24T03:27:11.428Z,-1.90
2019-01-24T03:29:38.644Z,-1.83
2019-01-24T03:32:06.191Z,-1.87
2019-01-24T03:34:33.352Z,-1.90
2019-01-24T03:37:00.595Z,-2.01
2019-01-24T03:39:27.755Z,-2.17
2019-01-24T03:41:54.918Z,-2.16
2019-01-24T03:44:22.124Z,-2.23
2019-01-24T03:46:49.286Z,-2.24
2019-01-24T03:49:16.428Z,-2.24
2019-01-24T03:51:43.666Z,-2.32
2019-01-24T03:54:10.821Z,-2.33
2019-01-24T03:56:38.015Z,-2.25
2019-01-24T03:59:05.212Z,-2.22
2019-01-24T04:01:32.323Z,-2.33
2019-01-24T04:03:59.776Z,-2.32
2019-01-24T04:06:26.887Z,-2.30
2019-01-24T04:08:54.349Z,-2.34
2019-01-24T04:11:21.558Z,-2.34
2019-01-24T04:13:48.644Z,-2.37
2019-01-24T04:16:15.867Z,-2.38
2019-01-24T04:18:43.048Z,-2.35
2019-01-24T04:21:10.307Z,-2.33
2019-01-24T04:23:37.445Z,-2.40
2019-01-24T04:26:04.634Z,-2.42
2019-01-24T04:28:33.414Z,-2.45
2019-01-24T04:31:00.733Z,-2.41
2019-01-24T04:33:27.895Z,-2.38
2019-01-24T04:35:55.042Z,-2.39
2019-01-24T04:38:22.215Z,-2.35
2019-01-24T04:40:49.382Z,-2.36
2019-01-24T04:43:16.501Z,-2.39
2019-01-24T04:45:43.651Z,-2.44
2019-01-24T04:48:10.703Z,-2.51
2019-01-24T04:50:39.711Z,-2.51
2019-01-24T04:53:06.909Z,-2.53
2019-01-24T04:55:34.387Z,-2.48
2019-01-24T04:58:01.761Z,-2.47
2019-01-24T05:00:29.867Z,-2.46
2019-01-24T05:02:57.070Z,-2.46
2019-01-24T05:05:27.876Z,-2.50
2019-01-24T05:07:53.464Z,-2.53
2019-01-24T05:10:20.619Z,-2.48
2019-01-24T05:12:47.833Z,-2.65
2019-01-24T05:15:15.035Z,-2.71
2019-01-24T05:17:42.384Z,-2.77
2019-01-24T05:20:10.025Z,-2.78
2019-01-24T05:22:37.468Z,-2.83
2019-01-24T05:25:06.323Z,-2.86
2019-01-24T05:27:33.557Z,-2.82
2019-01-24T05:30:00.597Z,-2.95
2019-01-24T05:32:27.772Z,-2.99
2019-01-24T05:34:54.974Z,-2.89
2019-01-24T05:37:22.162Z,-2.87
2019-01-24T05:39:49.357Z,-2.86
2019-01-24T05:42:16.548Z,-2.83
2019-01-24T05:44:43.717Z,-2.92
2019-01-24T05:47:11.240Z,-3.04
2019-01-24T05:49:38.413Z,-2.98
2019-01-24T05:52:05.639Z,-2.97
2019-01-24T05:54:32.822Z,-2.98
2019-01-24T05:57:00.051Z,-3.00
2019-01-24T05:59:27.247Z,-3.01
2019-01-24T06:01:54.882Z,-2.97
2019-01-24T06:04:22.251Z,-3.01
2019-01-24T06:06:49.317Z,-3.01
2019-01-24T06:09:16.496Z,-2.92
2019-01-24T06:11:43.624Z,-2.95
2019-01-24T06:14:10.784Z,-2.92
2019-01-24T06:16:37.979Z,-2.91
2019-01-24T06:19:05.152Z,-2.88
2019-01-24T06:21:32.398Z,-2.85
2019-01-24T06:23:59.480Z,-2.87
2019-01-24T06:26:26.707Z,-2.86
2019-01-24T06:28:53.855Z,-2.82
2019-01-24T06:31:21.047Z,-2.79
2019-01-24T06:33:48.283Z,-2.83
2019-01-24T06:36:15.773Z,-2.82
2019-01-24T06:38:42.983Z,-2.84
2019-01-24T06:41:10.164Z,-2.89
2019-01-24T06:43:37.341Z,-2.83
2019-01-24T06:46:04.595Z,-2.76
2019-01-24T06:48:31.801Z,-2.72
2019-01-24T06:50:58.856Z,-2.74
2019-01-24T06:53:26.002Z,-2.69
2019-01-24T06:55:53.194Z,-2.74
2019-01-24T06:58:20.372Z,-2.74
2019-01-24T07:00:47.570Z,-2.70
2019-01-24T07:03:14.677Z,-2.71
2019-01-24T07:05:41.807Z,-2.71
2019-01-24T07:08:08.974Z,-2.68
2019-01-24T07:10:36.464Z,-2.68
2019-01-24T07:13:03.964Z,-2.67
2019-01-24T07:15:31.557Z,-2.72
2019-01-24T07:17:58.683Z,-2.69
2019-01-24T07:20:26.185Z,-2.71
2019-01-24T07:22:53.347Z,-2.70
2019-01-24T07:25:22.735Z,-2.66
2019-01-24T07:27:49.973Z,-2.62
2019-01-24T07:30:17.360Z,-2.66
2019-01-24T07:32:45.497Z,-2.70
2019-01-24T07:35:13.800Z,-2.69
2019-01-24T07:37:40.972Z,-2.69
2019-01-24T07:40:10.442Z,-2.69
2019-01-24T07:42:37.967Z,-2.65
2019-01-24T07:45:09.301Z,-2.59
2019-01-24T07:47:36.547Z,-2.55
2019-01-24T07:50:04.916Z,-2.56
2019-01-24T07:52:32.150Z,-2.57
2019-01-24T07:54:59.364Z,-2.48
2019-01-24T07:57:26.595Z,-2.38
2019-01-24T07:59:53.816Z,-2.28
2019-01-24T08:02:21.045Z,-2.17
2019-01-24T08:04:48.201Z,-2.12
2019-01-24T08:07:15.388Z,-2.16
2019-01-24T08:09:42.578Z,-2.23
2019-01-24T08:12:09.771Z,-2.27
2019-01-24T08:14:36.986Z,-2.16
2019-01-24T08:17:04.245Z,-2.07
2019-01-24T08:19:31.420Z,-1.98
2019-01-24T08:21:58.480Z,-2.07
2019-01-24T08:24:25.698Z,-2.01
2019-01-24T08:26:52.877Z,-1.96
2019-01-24T08:29:20.052Z,-1.92
2019-01-24T08:31:47.185Z,-1.88
2019-01-24T08:34:14.252Z,-1.88
2019-01-24T08:36:41.420Z,-1.80
2019-01-24T08:39:08.850Z,-1.78
2019-01-24T08:41:35.998Z,-1.71
2019-01-24T08:44:03.200Z,-1.61
2019-01-24T08:46:30.410Z,-1.67
2019-01-24T08:48:57.577Z,-1.71
2019-01-24T08:51:24.769Z,-1.60
2019-01-24T08:53:51.890Z,-1.68
2019-01-24T08:56:19.066Z,-1.62
2019-01-24T08:58:46.181Z,-1.60
2019-01-24T09:01:13.373Z,-1.58
2019-01-24T09:03:40.535Z,-1.55
2019-01-24T09:06:07.799Z,-1.46
2019-01-24T09:08:35.006Z,-1.30
2019-01-24T09:11:02.159Z,-1.31
2019-01-24T09:13:29.377Z,-1.33
2019-01-24T09:15:56.555Z,-1.48
2019-01-24T09:18:23.712Z,-1.50
2019-01-24T09:20:50.821Z,-1.46
2019-01-24T09:23:18.619Z,-1.36
2019-01-24T09:25:45.784Z,-1.33
2019-01-24T09:28:15.033Z,-1.31
2019-01-24T09:30:42.383Z,-1.13
2019-01-24T09:33:09.579Z,-0.98
2019-01-24T09:39:11.085Z,-0.78
2019-01-24T09:41:38.340Z,-0.66
2019-01-24T09:44:05.554Z,-0.49
2019-01-24T09:46:32.790Z,-0.41
2019-01-24T09:48:59.942Z,-0.39
2019-01-24T09:51:27.136Z,-0.35
2019-01-24T09:53:54.380Z,-0.37
2019-01-24T09:56:21.796Z,-0.28
2019-01-24T09:58:49.294Z,-0.23
2019-01-24T10:01:16.460Z,-0.09
2019-01-24T10:03:43.621Z,0.02
2019-01-24T10:06:10.702Z,-0.12
2019-01-24T10:08:38.225Z,-0.10
2019-01-24T10:11:05.735Z,-0.12
2019-01-24T10:13:32.936Z,-0.14
2019-01-24T10:16:00.426Z,0.08
2019-01-24T10:18:27.589Z,0.15
2019-01-24T10:20:54.800Z,0.11
2019-01-24T10:23:22.056Z,-0.07
2019-01-24T10:25:49.273Z,-0.02
2019-01-24T10:28:16.481Z,0.17
2019-01-24T10:30:43.649Z,0.38
2019-01-24T10:33:10.815Z,0.54
2019-01-24T10:35:38.090Z,0.80
2019-01-24T10:38:05.191Z,0.93
2019-01-24T10:40:32.836Z,0.97
2019-01-24T10:43:00.102Z,0.86
2019-01-24T10:45:27.359Z,0.82
2019-01-24T10:47:54.730Z,0.77
2019-01-24T10:50:22.757Z,0.83
2019-01-24T10:52:49.977Z,1.13
2019-01-24T10:55:18.966Z,1.31
2019-01-24T10:57:46.141Z,1.22
2019-01-24T11:00:31.819Z,1.00
2019-01-24T11:02:59.043Z,0.99
2019-01-24T11:05:26.239Z,0.78
2019-01-24T11:07:53.423Z,0.71
2019-01-24T11:10:20.939Z,0.90
2019-01-24T11:12:48.150Z,0.83
2019-01-24T11:15:17.175Z,0.66
2019-01-24T11:17:44.252Z,0.59
2019-01-24T11:20:12.081Z,0.69
2019-01-24T11:22:39.447Z,0.66
2019-01-24T11:25:08.822Z,0.92
2019-01-24T11:27:35.994Z,1.25
2019-01-24T11:30:04.736Z,1.52
2019-01-24T11:32:31.932Z,1.69
2019-01-24T11:34:59.376Z,1.87
2019-01-24T11:37:26.583Z,2.09
2019-01-24T11:39:53.735Z,2.37
2019-01-24T11:42:20.964Z,2.44
2019-01-24T11:44:48.167Z,2.47
2019-01-24T11:47:15.384Z,2.56
2019-01-24T11:49:42.543Z,2.40
2019-01-24T11:52:09.748Z,2.45
2019-01-24T11:54:36.935Z,2.42
2019-01-24T11:57:04.727Z,2.52
2019-01-24T11:59:31.927Z,2.68
2019-01-24T12:01:59.133Z,2.66
2019-01-24T12:04:26.623Z,2.62
2019-01-24T12:06:53.857Z,2.64
2019-01-24T12:09:21.015Z,2.70
2019-01-24T12:11:48.408Z,2.79
2019-01-24T12:14:15.871Z,2.86
2019-01-24T12:16:43.089Z,2.94
2019-01-24T12:19:10.238Z,3.00
2019-01-24T12:21:37.417Z,3.03
2019-01-24T12:24:04.631Z,3.04
2019-01-24T12:26:31.805Z,3.02
2019-01-24T12:28:59.076Z,2.98
2019-01-24T12:31:26.256Z,2.96
2019-01-24T12:33:53.434Z,2.97
2019-01-24T12:36:20.624Z,2.99
2019-01-24T12:38:47.834Z,3.00
2019-01-24T12:41:15.022Z,3.03
2019-01-24T12:43:42.952Z,3.00
2019-01-24T12:46:10.180Z,2.89
2019-01-24T12:48:37.658Z,2.65
2019-01-24T12:51:04.854Z,2.60
2019-01-24T12:53:31.978Z,2.65
2019-01-24T12:55:59.146Z,2.73
2019-01-24T12:58:26.478Z,2.77
2019-01-24T13:00:53.665Z,2.76
2019-01-24T13:03:20.973Z,2.73
2019-01-24T13:05:48.318Z,2.75
2019-01-24T13:08:15.558Z,2.77
2019-01-24T13:10:42.709Z,2.69
2019-01-24T13:13:09.997Z,2.58
2019-01-24T13:15:37.905Z,2.16
2019-01-24T13:18:05.221Z,1.93
2019-01-24T13:20:32.325Z,1.73
2019-01-24T13:23:00.768Z,1.71
2019-01-24T13:25:30.027Z,1.80
2019-01-24T13:27:57.302Z,1.86
2019-01-24T13:30:26.317Z,1.89
2019-01-24T13:32:53.612Z,1.74
2019-01-24T13:35:20.754Z,1.49
2019-01-24T13:37:47.974Z,1.39
2019-01-24T13:40:17.364Z,1.39
2019-01-24T13:42:44.602Z,1.47
2019-01-24T13:45:15.053Z,1.48
2019-01-24T13:47:42.164Z,1.37
2019-01-24T13:50:11.756Z,1.28
2019-01-24T13:52:39.247Z,1.25
2019-01-24T13:55:06.616Z,1.13
2019-01-24T13:57:34.178Z,1.14
2019-01-24T14:00:01.392Z,1.19
2019-01-24T14:02:28.804Z,1.19
2019-01-24T14:04:56.000Z,1.22
2019-01-24T14:07:23.520Z,1.16
2019-01-24T14:09:51.063Z,1.10
2019-01-24T14:12:18.633Z,1.02
2019-01-24T14:14:45.852Z,0.95
2019-01-24T14:17:12.946Z,0.84
2019-01-24T14:19:40.147Z,0.78
2019-01-24T14:22:07.300Z,0.79
2019-01-24T14:24:34.488Z,0.76
2019-01-24T14:27:01.721Z,0.74
2019-01-24T14:29:28.905Z,0.69
2019-01-24T14:31:56.412Z,0.63
2019-01-24T14:34:23.624Z,0.55
2019-01-24T14:36:50.891Z,0.42
2019-01-24T14:39:18.081Z,0.39
2019-01-24T14:41:45.306Z,0.41
2019-01-24T14:44:12.477Z,0.37
2019-01-24T14:46:39.656Z,0.30
2019-01-24T14:49:06.925Z,0.27
2019-01-24T14:51:34.096Z,0.29
2019-01-24T14:54:01.296Z,0.17
2019-01-24T14:56:28.483Z,-0.05
2019-01-24T14:58:56.124Z,-0.15
2019-01-24T15:01:25.337Z,-0.10
2019-01-24T15:03:52.748Z,-0.09
2019-01-24T15:06:20.167Z,-0.26
2019-01-24T15:08:47.646Z,-0.34
2019-01-24T15:11:14.857Z,-0.35
2019-01-24T15:13:42.250Z,-0.39
2019-01-24T15:16:09.430Z,-0.41
2019-01-24T15:18:36.644Z,-0.40
2019-01-24T15:21:03.852Z,-0.34
2019-01-24T15:23:31.096Z,-0.28
2019-01-24T15:25:58.319Z,-0.10
2019-01-24T15:28:25.530Z,-0.08
2019-01-24T15:30:52.816Z,-0.18
2019-01-24T15:33:19.899Z,-0.23
2019-01-24T15:35:47.144Z,-0.23
2019-01-24T15:38:14.356Z,-0.37
2019-01-24T15:40:41.442Z,-0.41
2019-01-24T15:43:09.273Z,-0.45
2019-01-24T15:45:36.559Z,-0.46
2019-01-24T15:48:05.644Z,-0.52
2019-01-24T15:50:32.771Z,-0.57
2019-01-24T15:52:59.977Z,-0.62
2019-01-24T15:55:27.170Z,-0.59
2019-01-24T15:57:54.656Z,-0.56
2019-01-24T16:00:23.912Z,-0.57
2019-01-24T16:02:51.423Z,-0.51
2019-01-24T16:05:18.619Z,-0.47
2019-01-24T16:07:46.052Z,-0.43
2019-01-24T16:10:15.265Z,-0.41
2019-01-24T16:12:42.444Z,-0.39
2019-01-24T16:15:12.516Z,-0.35
2019-01-24T16:17:39.624Z,-0.34
2019-01-24T16:20:10.004Z,-0.29
2019-01-24T16:22:37.235Z,-0.33
2019-01-24T16:25:04.903Z,-0.36
2019-01-24T16:27:32.039Z,-0.38
2019-01-24T16:29:59.245Z,-0.37
2019-01-24T16:32:26.362Z,-0.39
2019-01-24T16:34:53.557Z,-0.45
2019-01-24T16:37:20.888Z,-0.46
2019-01-24T16:39:48.128Z,-0.49
2019-01-24T16:42:15.336Z,-0.49
2019-01-24T16:44:42.528Z,-0.57
2019-01-24T16:47:09.776Z,-0.53
2019-01-24T16:49:36.998Z,-0.58
2019-01-24T16:52:04.257Z,-0.55
2019-01-24T16:54:31.492Z,-0.59
2019-01-24T16:56:58.936Z,-0.58
2019-01-24T16:59:26.154Z,-0.58
2019-01-24T17:01:53.699Z,-0.55
2019-01-24T17:04:20.870Z,-0.58
2019-01-24T17:06:48.348Z,-0.64
2019-01-24T17:09:15.434Z,-0.70
2019-01-24T17:11:42.585Z,-0.70
2019-01-24T17:14:09.722Z,-0.69
2019-01-24T17:16:36.911Z,-0.66
2019-01-24T17:19:04.403Z,-0.63
2019-01-24T17:21:31.607Z,-0.55
2019-01-24T17:23:58.714Z,-0.54
2019-01-24T17:26:25.919Z,-0.56
2019-01-24T17:28:53.113Z,-0.54
2019-01-24T17:31:20.339Z,-0.54
2019-01-24T17:33:47.526Z,-0.51
2019-01-24T17:36:14.740Z,-0.54
2019-01-24T17:38:42.050Z,-0.61
2019-01-24T17:41:09.289Z,-0.65
2019-01-24T17:43:36.475Z,-0.67
2019-01-24T17:46:04.239Z,-0.69
2019-01-24T17:48:31.764Z,-0.66
2019-01-24T17:50:58.849Z,-0.66
2019-01-24T17:53:26.393Z,-0.64
2019-01-24T17:55:53.514Z,-0.62
2019-01-24T17:58:20.750Z,-0.62
2019-01-24T18:00:49.952Z,-0.65
2019-01-24T18:03:17.031Z,-0.66
2019-01-24T18:05:44.456Z,-0.65
2019-01-24T18:08:11.712Z,-0.66
2019-01-24T18:10:38.882Z,-0.65
2019-01-24T18:13:06.097Z,-0.65
2019-01-24T18:15:33.577Z,-0.63
2019-01-24T18:18:01.109Z,-0.65
2019-01-24T18:20:30.449Z,-0.66
2019-01-24T18:22:58.091Z,-0.66
2019-01-24T18:25:25.436Z,-0.65
2019-01-24T18:27:52.649Z,-0.73
2019-01-24T18:30:21.863Z,-0.73
2019-01-24T18:32:49.141Z,-0.81
2019-01-24T18:35:16.582Z,-0.88
2019-01-24T18:37:43.681Z,-0.88
2019-01-24T18:40:14.325Z,-0.91
2019-01-24T18:42:41.520Z,-0.93
2019-01-24T18:45:12.372Z,-0.95
2019-01-24T18:47:39.439Z,-1.01
2019-01-24T18:50:10.463Z,-1.00
2019-01-24T18:52:37.991Z,-1.01
2019-01-24T18:55:05.913Z,-1.01
2019-01-24T18:57:33.205Z,-1.01
2019-01-24T19:00:00.654Z,-0.89
2019-01-24T19:02:28.139Z,-0.86
2019-01-24T19:04:55.321Z,-0.86
2019-01-24T19:07:22.563Z,-0.88
2019-01-24T19:09:49.763Z,-0.84
2019-01-24T19:12:16.981Z,-0.81
2019-01-24T19:14:44.195Z,-0.80
2019-01-24T19:17:11.712Z,-0.81
2019-01-24T19:19:39.129Z,-0.75
2019-01-24T19:22:06.726Z,-0.74
2019-01-24T19:24:34.196Z,-0.81
2019-01-24T19:27:01.351Z,-0.77
2019-01-24T19:29:28.820Z,-0.78
2019-01-24T19:31:56.109Z,-0.78
2019-01-24T19:34:23.344Z,-0.76
2019-01-24T19:36:50.619Z,-0.81
2019-01-24T19:39:17.813Z,-0.83
2019-01-24T19:41:45.033Z,-0.83
2019-01-24T19:44:15.794Z,-0.73
2019-01-24T19:46:41.390Z,-0.69
2019-01-24T19:49:08.591Z,-0.61
2019-01-24T19:51:35.918Z,-0.69
2019-01-24T19:54:03.497Z,-0.70
2019-01-24T19:56:30.797Z,-0.74
2019-01-24T19:58:58.026Z,-0.82
2019-01-24T20:01:25.485Z,-0.82
2019-01-24T20:03:52.645Z,-0.83
2019-01-24T20:06:20.083Z,-0.78
2019-01-24T20:08:47.307Z,-0.62
2019-01-24T20:11:14.515Z,-0.62
2019-01-24T20:13:42.902Z,-0.63
2019-01-24T20:16:10.191Z,-0.67
2019-01-24T20:18:37.449Z,-0.67
2019-01-24T20:21:04.959Z,-0.63
2019-01-24T20:23:32.156Z,-0.60
2019-01-24T20:25:59.368Z,-0.59
2019-01-24T20:28:26.570Z,-0.56
2019-01-24T20:30:53.806Z,-0.57
2019-01-24T20:33:21.026Z,-0.59
2019-01-24T20:35:54.055Z,-0.63
2019-01-24T20:38:21.241Z,-0.62
2019-01-24T20:40:48.479Z,-0.63
2019-01-24T20:43:16.324Z,-0.63
2019-01-24T20:45:43.551Z,-0.64
2019-01-24T20:48:10.755Z,-0.61
2019-01-24T20:50:37.975Z,-0.60
2019-01-24T20:53:05.322Z,-0.61
2019-01-24T20:55:32.574Z,-0.64
2019-01-24T20:58:00.688Z,-0.64
2019-01-24T21:00:28.609Z,-0.63
2019-01-24T21:02:55.730Z,-0.63
2019-01-24T21:05:23.350Z,-0.64
2019-01-24T21:07:50.848Z,-0.60
2019-01-24T21:10:20.209Z,-0.58
2019-01-24T21:12:47.696Z,-0.55
2019-01-24T21:15:15.502Z,-0.56
2019-01-24T21:17:42.610Z,-0.60
2019-01-24T21:20:12.655Z,-0.61
2019-01-24T21:22:39.847Z,-0.54
2019-01-24T21:25:08.773Z,-0.54
2019-01-24T21:27:36.245Z,-0.55
2019-01-24T21:30:05.171Z,-0.58
2019-01-24T21:32:32.361Z,-0.57
2019-01-24T21:34:59.470Z,-0.50
2019-01-24T21:37:26.682Z,-0.54
2019-01-24T21:39:54.251Z,-0.52
2019-01-24T21:42:21.478Z,-0.58
2019-01-24T21:44:48.689Z,-0.63
2019-01-24T21:47:15.861Z,-0.65
2019-01-24T21:49:43.387Z,-0.58
2019-01-24T21:52:10.582Z,-0.53
2019-01-24T21:54:37.756Z,-0.49
2019-01-24T21:57:04.962Z,-0.49
2019-01-24T21:59:33.500Z,-0.59
2019-01-24T22:02:00.762Z,-0.68
2019-01-24T22:04:27.978Z,-0.73
2019-01-24T22:06:56.231Z,-0.78
2019-01-24T22:09:29.169Z,-0.78
2019-01-24T22:11:52.809Z,-0.84
2019-01-24T22:14:20.048Z,-0.98
2019-01-24T22:16:47.151Z,-1.02
2019-01-24T22:19:14.379Z,-1.04
2019-01-24T22:21:41.588Z,-1.03
2019-01-24T22:24:08.788Z,-1.03
2019-01-24T22:26:36.016Z,-1.03
2019-01-24T22:29:03.858Z,-1.03
2019-01-24T22:31:31.132Z,-1.00
2019-01-24T22:33:58.330Z,-0.98
2019-01-24T22:36:25.516Z,-0.97
2019-01-24T22:38:52.698Z,-0.98
2019-01-24T22:41:19.950Z,-0.98
2019-01-24T22:43:47.113Z,-0.96
2019-01-24T22:46:14.380Z,-0.91
2019-01-24T22:48:41.761Z,-0.89
2019-01-24T22:51:08.918Z,-0.86
2019-01-24T22:53:36.019Z,-0.84
2019-01-24T22:56:03.415Z,-0.80
2019-01-24T22:58:30.487Z,-0.78
2019-01-24T23:01:29.242Z,-0.70
2019-01-24T23:04:11.594Z,-0.71
2019-01-24T23:06:38.949Z,-0.79
2019-01-24T23:09:08.615Z,-0.82
2019-01-24T23:11:37.699Z,-0.84
2019-01-24T23:14:05.574Z,-0.82
2019-01-24T23:16:33.104Z,-0.85
2019-01-24T23:19:00.713Z,-0.85
2019-01-24T23:21:27.996Z,-0.83
2019-01-24T23:23:55.203Z,-0.84
2019-01-24T23:26:22.376Z,-0.82
2019-01-24T23:28:49.597Z,-0.82
2019-01-24T23:31:16.739Z,-0.81
2019-01-24T23:33:43.950Z,-0.79
2019-01-24T23:36:11.134Z,-0.76
2019-01-24T23:38:38.323Z,-0.74
2019-01-24T23:41:05.482Z,-0.75
2019-01-24T23:43:33.037Z,-0.74
2019-01-24T23:46:00.210Z,-0.75
2019-01-24T23:48:27.390Z,-0.75
2019-01-24T23:50:54.480Z,-0.74
2019-01-24T23:53:21.715Z,-0.73
2019-01-24T23:55:48.767Z,-0.70
2019-01-24T23:58:16.304Z,-0.73
